createdAt,value
2023-05-05T00:01:25.307Z,94.30
2023-05-05T00:03:52.742Z,94.30
2023-05-05T00:06:19.688Z,94.30
2023-05-05T00:08:46.873Z,94.40
2023-05-05T00:11:13.763Z,94.50
2023-05-05T00:13:40.719Z,94.60
2023-05-05T00:16:07.687Z,94.60
2023-05-05T00:18:34.540Z,94.60
2023-05-05T00:21:01.782Z,94.70
2023-05-05T00:23:28.906Z,94.80
2023-05-05T00:25:56.115Z,94.90
2023-05-05T00:28:23.283Z,94.90
2023-05-05T00:30:50.401Z,94.90
2023-05-05T00:33:17.370Z,95.00
2023-05-05T00:35:44.520Z,95.20
2023-05-05T00:38:11.420Z,95.10
2023-05-05T00:40:38.478Z,95.00
2023-05-05T00:43:05.432Z,95.00
2023-05-05T00:45:32.320Z,95.10
2023-05-05T00:47:59.359Z,95.00
2023-05-05T00:50:27.138Z,95.20
2023-05-05T00:52:54.620Z,95.20
2023-05-05T00:55:21.885Z,95.20
2023-05-05T00:57:49.393Z,95.10
2023-05-05T01:00:16.964Z,95.20
2023-05-05T01:02:44.233Z,95.20
2023-05-05T01:05:11.293Z,95.20
2023-05-05T01:07:38.546Z,95.10
2023-05-05T01:10:19.685Z,95.00
2023-05-05T01:13:07.269Z,95.30
2023-05-05T01:15:40.389Z,95.40
2023-05-05T01:18:11.870Z,95.30
2023-05-05T01:20:41.328Z,95.60
2023-05-05T01:23:19.269Z,95.40
2023-05-05T01:26:06.155Z,95.20
2023-05-05T01:28:52.066Z,95.30
2023-05-05T01:31:21.933Z,95.30
2023-05-05T01:33:49.727Z,95.50
2023-05-05T01:36:22.905Z,95.70
2023-05-05T01:38:52.016Z,95.70
2023-05-05T01:41:19.746Z,95.80
2023-05-05T01:43:47.337Z,95.80
2023-05-05T01:46:15.536Z,95.90
2023-05-05T01:48:42.913Z,96.20
2023-05-05T01:51:09.742Z,96.40
2023-05-05T01:53:36.650Z,96.30
2023-05-05T01:56:03.562Z,96.20
2023-05-05T01:58:30.505Z,96.40
2023-05-05T02:00:57.605Z,96.40
2023-05-05T02:03:24.814Z,96.40
2023-05-05T02:05:51.795Z,96.30
2023-05-05T02:08:18.694Z,96.50
2023-05-05T02:10:45.748Z,96.50
2023-05-05T02:13:13.239Z,96.40
2023-05-05T02:15:40.422Z,96.60
2023-05-05T02:18:10.246Z,96.60
2023-05-05T02:20:39.885Z,96.60
2023-05-05T02:23:08.052Z,96.80
2023-05-05T02:25:36.954Z,96.70
2023-05-05T02:28:03.959Z,96.70
2023-05-05T02:30:31.400Z,96.50
2023-05-05T02:33:00.405Z,96.50
2023-05-05T02:35:32.172Z,96.50
2023-05-05T02:38:02.057Z,96.50
2023-05-05T02:40:34.353Z,96.40
2023-05-05T02:43:06.655Z,96.40
2023-05-05T02:45:34.000Z,96.40
2023-05-05T02:48:04.429Z,96.40
2023-05-05T02:50:34.776Z,96.40
2023-05-05T02:53:14.049Z,96.50
2023-05-05T02:55:45.783Z,96.50
2023-05-05T02:58:34.236Z,96.50
2023-05-05T03:01:06.414Z,96.40
2023-05-05T03:03:52.524Z,96.70
2023-05-05T03:06:22.881Z,96.60
2023-05-05T03:09:06.606Z,96.80
2023-05-05T03:11:36.247Z,96.70
2023-05-05T03:14:07.596Z,96.60
2023-05-05T03:16:35.537Z,96.50
2023-05-05T03:19:04.140Z,96.50
2023-05-05T03:21:32.672Z,96.60
2023-05-05T03:23:59.623Z,96.50
2023-05-05T03:26:26.922Z,96.60
2023-05-05T03:28:53.864Z,96.60
2023-05-05T03:31:28.602Z,96.60
2023-05-05T03:33:58.697Z,96.70
2023-05-05T03:36:30.341Z,96.80
2023-05-05T03:38:58.600Z,96.80
2023-05-05T03:41:27.836Z,96.80
2023-05-05T03:43:55.265Z,96.90
2023-05-05T03:46:22.380Z,97.00
2023-05-05T03:48:49.354Z,97.20
2023-05-05T03:51:16.601Z,97.10
2023-05-05T03:53:43.797Z,97.40
2023-05-05T03:56:11.325Z,97.40
2023-05-05T03:58:38.263Z,97.30
2023-05-05T04:01:05.351Z,97.40
2023-05-05T04:03:32.570Z,97.50
2023-05-05T04:06:00.250Z,97.40
2023-05-05T04:08:28.244Z,97.50
2023-05-05T04:10:55.198Z,97.50
2023-05-05T04:13:22.141Z,97.40
2023-05-05T04:15:49.037Z,97.40
2023-05-05T04:18:17.323Z,97.40
2023-05-05T04:20:44.507Z,97.50
2023-05-05T04:23:12.207Z,97.40
2023-05-05T04:25:39.867Z,97.40
2023-05-05T04:28:06.824Z,97.40
2023-05-05T04:30:33.795Z,97.30
2023-05-05T04:33:01.675Z,97.30
2023-05-05T04:35:29.089Z,97.40
2023-05-05T04:37:56.108Z,97.40
2023-05-05T04:40:23.576Z,97.40
2023-05-05T04:42:51.155Z,97.40
2023-05-05T04:45:18.052Z,97.50
2023-05-05T04:47:45.259Z,97.40
2023-05-05T04:50:12.565Z,97.80
2023-05-05T04:52:39.731Z,97.90
2023-05-05T04:55:06.801Z,97.80
2023-05-05T04:57:33.659Z,97.90
2023-05-05T05:00:00.938Z,98.10
2023-05-05T05:02:28.313Z,97.70
2023-05-05T05:04:55.301Z,97.70
2023-05-05T05:07:22.742Z,97.70
2023-05-05T05:09:51.710Z,97.60
2023-05-05T05:12:18.623Z,97.50
2023-05-05T05:14:45.550Z,97.50
2023-05-05T05:17:12.554Z,97.60
2023-05-05T05:19:39.433Z,97.30
2023-05-05T05:22:06.673Z,97.10
2023-05-05T05:24:37.684Z,97.20
2023-05-05T05:27:09.687Z,96.90
2023-05-05T05:29:37.392Z,97.00
2023-05-05T05:32:04.590Z,96.80
2023-05-05T05:34:31.651Z,96.80
2023-05-05T05:36:59.301Z,96.40
2023-05-05T05:39:26.228Z,95.50
2023-05-05T05:41:53.322Z,95.50
2023-05-05T05:44:20.405Z,95.20
2023-05-05T05:46:47.740Z,95.00
2023-05-05T05:49:16.855Z,95.00
2023-05-05T05:51:43.852Z,95.00
2023-05-05T05:54:10.834Z,95.10
2023-05-05T05:56:38.249Z,94.80
2023-05-05T05:59:08.184Z,94.60
2023-05-05T06:01:35.694Z,94.60
2023-05-05T06:04:03.230Z,94.40
2023-05-05T06:06:30.659Z,94.50
2023-05-05T06:08:57.559Z,94.70
2023-05-05T06:11:24.814Z,94.70
2023-05-05T06:13:51.804Z,94.70
2023-05-05T06:16:18.730Z,94.50
2023-05-05T06:18:46.643Z,94.60
2023-05-05T06:21:13.685Z,94.40
2023-05-05T06:23:42.310Z,94.20
2023-05-05T06:26:09.448Z,94.30
2023-05-05T06:28:36.389Z,94.30
2023-05-05T06:31:03.325Z,94.30
2023-05-05T06:33:30.340Z,94.50
2023-05-05T06:35:57.310Z,94.30
2023-05-05T06:38:24.211Z,94.40
2023-05-05T06:40:51.094Z,94.40
2023-05-05T06:43:18.049Z,94.40
2023-05-05T06:45:52.253Z,94.40
2023-05-05T06:48:19.213Z,94.40
2023-05-05T06:50:46.053Z,94.00
2023-05-05T06:53:13.032Z,93.80
2023-05-05T06:55:42.854Z,93.80
2023-05-05T06:58:09.786Z,93.70
2023-05-05T07:00:37.002Z,93.40
2023-05-05T07:03:04.213Z,93.60
2023-05-05T07:05:31.481Z,93.20
2023-05-05T07:07:58.474Z,93.40
2023-05-05T07:10:25.380Z,93.40
2023-05-05T07:12:52.750Z,93.40
2023-05-05T07:15:28.704Z,93.40
2023-05-05T07:17:56.792Z,93.20
2023-05-05T07:20:24.341Z,93.00
2023-05-05T07:22:51.649Z,92.90
2023-05-05T07:25:18.573Z,93.00
2023-05-05T07:27:45.536Z,93.20
2023-05-05T07:30:15.575Z,92.80
2023-05-05T07:32:44.371Z,92.80
2023-05-05T07:35:11.501Z,92.70
2023-05-05T07:37:38.384Z,92.50
2023-05-05T07:40:05.922Z,92.90
2023-05-05T07:42:33.042Z,92.60
2023-05-05T07:45:00.028Z,93.00
2023-05-05T07:47:27.209Z,93.00
2023-05-05T07:49:54.106Z,92.70
2023-05-05T07:52:30.079Z,93.10
2023-05-05T07:55:04.702Z,92.30
2023-05-05T07:57:31.697Z,92.10
2023-05-05T07:59:58.576Z,92.30
2023-05-05T08:02:25.926Z,92.10
2023-05-05T08:04:53.082Z,92.00
2023-05-05T08:07:20.007Z,92.00
2023-05-05T08:09:46.838Z,91.50
2023-05-05T08:12:15.362Z,90.30
2023-05-05T08:14:42.718Z,88.80
2023-05-05T08:17:09.574Z,85.40
2023-05-05T08:19:36.488Z,81.40
2023-05-05T08:22:03.488Z,80.70
2023-05-05T08:24:31.031Z,80.50
2023-05-05T08:26:58.006Z,78.50
2023-05-05T08:29:24.942Z,79.60
2023-05-05T08:31:52.350Z,80.20
2023-05-05T08:34:19.277Z,81.50
2023-05-05T08:36:46.223Z,81.50
2023-05-05T08:39:13.079Z,80.80
2023-05-05T08:41:40.031Z,75.40
2023-05-05T08:44:07.845Z,77.20
2023-05-05T08:46:35.668Z,71.90
2023-05-05T08:49:04.054Z,71.90
2023-05-05T08:51:32.192Z,69.20
2023-05-05T08:54:02.600Z,67.40
2023-05-05T08:56:33.115Z,65.50
2023-05-05T08:59:00.301Z,61.50
2023-05-05T09:01:27.466Z,60.10
2023-05-05T09:03:54.371Z,58.00
2023-05-05T09:06:22.496Z,45.40
2023-05-05T09:08:49.814Z,40.70
2023-05-05T09:11:16.712Z,40.60
2023-05-05T09:13:43.766Z,46.10
2023-05-05T09:16:10.848Z,42.10
2023-05-05T09:18:37.949Z,44.50
2023-05-05T09:21:23.224Z,40.40
2023-05-05T09:24:09.313Z,35.00
2023-05-05T09:26:37.338Z,35.10
2023-05-05T09:29:04.351Z,38.60
2023-05-05T09:31:31.965Z,43.10
2023-05-05T09:34:01.158Z,39.30
2023-05-05T09:36:41.319Z,39.30
2023-05-05T09:39:08.507Z,39.20
2023-05-05T09:41:38.739Z,42.70
2023-05-05T09:44:06.173Z,37.70
2023-05-05T09:46:33.359Z,39.40
2023-05-05T09:49:14.356Z,36.70
2023-05-05T09:51:41.378Z,38.30
2023-05-05T09:54:08.277Z,38.40
2023-05-05T09:56:39.577Z,31.80
2023-05-05T09:59:09.902Z,36.40
2023-05-05T10:01:36.801Z,28.20
2023-05-05T10:04:03.786Z,27.40
2023-05-05T10:06:48.946Z,26.20
2023-05-05T10:09:16.004Z,21.90
2023-05-05T10:11:43.454Z,22.50
2023-05-05T10:14:10.766Z,20.60
2023-05-05T10:16:38.114Z,23.50
2023-05-05T10:19:04.991Z,22.40
2023-05-05T10:21:35.411Z,21.70
2023-05-05T10:24:07.827Z,20.90
2023-05-05T10:26:35.030Z,17.50
2023-05-05T10:29:02.010Z,15.50
2023-05-05T10:31:48.081Z,16.10
2023-05-05T10:34:18.541Z,18.60
2023-05-05T10:36:45.479Z,12.80
2023-05-05T10:39:12.348Z,13.60
2023-05-05T10:41:39.266Z,11.50
2023-05-05T10:44:06.170Z,12.80
2023-05-05T10:46:33.123Z,15.10
2023-05-05T10:49:03.221Z,17.10
2023-05-05T10:51:40.469Z,17.00
2023-05-05T10:54:10.516Z,16.90
2023-05-05T10:56:37.509Z,17.90
2023-05-05T10:59:04.396Z,16.50
2023-05-05T11:01:32.612Z,17.20
2023-05-05T11:04:18.834Z,17.50
2023-05-05T11:07:04.752Z,16.70
2023-05-05T11:09:32.539Z,14.90
2023-05-05T11:12:03.219Z,12.40
2023-05-05T11:14:30.142Z,10.50
2023-05-05T11:16:57.176Z,8.20
2023-05-05T11:19:42.502Z,10.10
2023-05-05T11:22:09.602Z,5.50
2023-05-05T11:24:36.627Z,4.40
2023-05-05T11:27:03.706Z,5.60
2023-05-05T11:29:56.633Z,6.30
2023-05-05T11:32:23.600Z,2.50
2023-05-05T11:34:50.953Z,2.40
2023-05-05T11:37:18.002Z,1.90
2023-05-05T11:39:48.760Z,2.00
2023-05-05T11:42:25.948Z,1.00
2023-05-05T11:44:53.160Z,3.20
2023-05-05T11:47:20.075Z,5.50
2023-05-05T11:49:47.106Z,5.40
2023-05-05T11:52:14.365Z,4.50
2023-05-05T11:54:50.916Z,6.90
2023-05-05T11:57:21.271Z,3.10
2023-05-05T11:59:54.136Z,4.90
2023-05-05T12:02:21.338Z,1.40
2023-05-05T12:04:48.733Z,1.20
2023-05-05T12:07:19.105Z,1.00
2023-05-05T12:09:46.278Z,1.10
2023-05-05T12:12:13.173Z,1.00
2023-05-05T12:14:51.965Z,1.00
2023-05-05T12:17:22.852Z,1.90
2023-05-05T12:19:51.450Z,1.00
2023-05-05T12:22:18.842Z,1.00
2023-05-05T12:24:45.824Z,1.00
2023-05-05T12:27:12.802Z,1.00
2023-05-05T12:29:39.657Z,1.00
2023-05-05T12:32:06.690Z,1.50
2023-05-05T12:34:33.616Z,2.70
2023-05-05T12:37:01.173Z,1.00
2023-05-05T12:39:37.232Z,1.30
2023-05-05T12:42:04.527Z,1.90
2023-05-05T12:44:37.618Z,2.20
2023-05-05T12:47:05.037Z,2.60
2023-05-05T12:49:34.671Z,1.80
2023-05-05T12:52:01.766Z,1.80
2023-05-05T12:54:31.585Z,1.90
2023-05-05T12:56:58.810Z,1.70
2023-05-05T12:59:25.682Z,2.10
2023-05-05T13:01:53.231Z,6.90
2023-05-05T13:04:21.164Z,3.80
2023-05-05T13:06:48.459Z,2.70
2023-05-05T13:09:25.237Z,2.20
2023-05-05T13:11:52.793Z,3.10
2023-05-05T13:14:19.851Z,1.00
2023-05-05T13:16:46.834Z,2.30
2023-05-05T13:19:13.782Z,1.00
2023-05-05T13:21:40.687Z,1.00
2023-05-05T13:26:37.364Z,1.00
2023-05-05T13:29:04.466Z,1.00
2023-05-05T13:31:31.549Z,1.00
2023-05-05T13:33:58.413Z,1.00
2023-05-05T13:36:25.415Z,1.00
2023-05-05T13:38:52.259Z,1.00
2023-05-05T13:41:19.258Z,1.00
2023-05-05T13:43:46.090Z,1.00
2023-05-05T13:46:20.084Z,1.00
2023-05-05T13:48:47.470Z,1.00
2023-05-05T13:51:15.921Z,1.00
2023-05-05T13:53:44.241Z,1.00
2023-05-05T13:56:11.138Z,1.00
2023-05-05T13:58:38.140Z,1.00
2023-05-05T14:01:05.161Z,1.00
2023-05-05T14:03:32.191Z,1.00
2023-05-05T14:05:59.126Z,1.00
2023-05-05T14:08:26.185Z,1.00
2023-05-05T14:10:53.075Z,1.00
2023-05-05T14:13:20.146Z,1.00
2023-05-05T14:15:47.277Z,1.00
2023-05-05T14:18:14.197Z,1.00
2023-05-05T14:20:41.526Z,1.00
2023-05-05T14:23:08.451Z,1.00
2023-05-05T14:25:35.331Z,1.00
2023-05-05T14:28:02.258Z,1.00
2023-05-05T14:30:29.197Z,1.00
2023-05-05T14:32:56.482Z,1.00
2023-05-05T14:35:23.357Z,1.00
2023-05-05T14:37:50.302Z,1.00
2023-05-05T14:40:17.179Z,1.00
2023-05-05T14:42:44.109Z,1.00
2023-05-05T14:45:11.411Z,1.00
2023-05-05T14:47:38.393Z,1.00
2023-05-05T14:50:05.684Z,1.00
2023-05-05T14:52:32.624Z,1.00
2023-05-05T14:54:59.501Z,1.00
2023-05-05T14:57:26.363Z,1.00
2023-05-05T14:59:53.296Z,1.00
2023-05-05T15:02:20.240Z,1.00
2023-05-05T15:04:49.206Z,1.00
2023-05-05T15:07:16.817Z,1.00
2023-05-05T15:09:43.768Z,1.00
2023-05-05T15:12:10.740Z,1.00
2023-05-05T15:14:38.328Z,1.00
2023-05-05T15:17:05.534Z,1.00
2023-05-05T15:19:32.382Z,1.00
2023-05-05T15:21:59.334Z,1.00
2023-05-05T15:24:26.505Z,1.00
2023-05-05T15:26:53.389Z,1.00
2023-05-05T15:29:20.271Z,1.00
2023-05-05T15:31:47.287Z,1.00
2023-05-05T15:34:14.163Z,1.00
2023-05-05T15:36:41.176Z,1.00
2023-05-05T15:39:08.103Z,1.00
2023-05-05T15:41:34.998Z,1.00
2023-05-05T15:44:03.330Z,1.00
2023-05-05T15:46:33.648Z,1.00
2023-05-05T15:49:00.670Z,1.00
2023-05-05T15:51:27.626Z,1.00
2023-05-05T15:53:54.703Z,1.00
2023-05-05T15:56:21.583Z,1.00
2023-05-05T15:58:48.510Z,1.00
2023-05-05T16:01:15.558Z,1.00
2023-05-05T16:03:42.496Z,1.00
2023-05-05T16:06:11.746Z,1.00
2023-05-05T16:08:38.803Z,1.00
2023-05-05T16:11:05.859Z,1.00
2023-05-05T16:13:32.749Z,1.00
2023-05-05T16:15:59.597Z,1.00
2023-05-05T16:18:26.883Z,1.00
2023-05-05T16:20:53.773Z,1.00
2023-05-05T16:23:20.856Z,1.00
2023-05-05T16:25:47.719Z,1.00
2023-05-05T16:28:14.591Z,1.00
2023-05-05T16:30:43.146Z,1.00
2023-05-05T16:33:10.210Z,1.00
2023-05-05T16:35:37.100Z,1.00
2023-05-05T16:38:03.993Z,1.00
2023-05-05T16:40:30.865Z,1.30
2023-05-05T16:42:57.802Z,1.00
2023-05-05T16:45:24.943Z,1.80
2023-05-05T16:47:51.867Z,1.00
2023-05-05T16:50:18.796Z,1.00
2023-05-05T16:52:45.680Z,1.00
2023-05-05T16:55:12.655Z,1.20
2023-05-05T16:57:39.570Z,1.40
2023-05-05T17:00:06.814Z,1.30
2023-05-05T17:02:33.891Z,2.50
2023-05-05T17:05:00.920Z,2.50
2023-05-05T17:07:27.963Z,2.50
2023-05-05T17:09:54.867Z,3.60
2023-05-05T17:12:21.784Z,3.60
2023-05-05T17:14:48.747Z,2.90
2023-05-05T17:17:15.735Z,2.80
2023-05-05T17:19:42.978Z,2.60
2023-05-05T17:22:09.888Z,2.60
2023-05-05T17:24:36.755Z,3.20
2023-05-05T17:27:03.725Z,2.40
2023-05-05T17:29:30.830Z,2.90
2023-05-05T17:31:57.701Z,3.50
2023-05-05T17:34:24.627Z,4.00
2023-05-05T17:36:51.631Z,4.50
2023-05-05T17:39:18.557Z,5.80
2023-05-05T17:41:45.499Z,5.10
2023-05-05T17:44:12.361Z,6.80
2023-05-05T17:46:39.551Z,5.80
2023-05-05T17:49:06.579Z,5.60
2023-05-05T17:51:33.577Z,6.40
2023-05-05T17:54:00.523Z,5.70
2023-05-05T17:56:27.475Z,6.60
2023-05-05T17:58:54.479Z,7.60
2023-05-05T18:01:22.490Z,8.10
2023-05-05T18:03:49.526Z,9.10
2023-05-05T18:06:16.432Z,8.70
2023-05-05T18:08:43.422Z,9.50
2023-05-05T18:11:10.394Z,9.10
2023-05-05T18:13:37.679Z,9.30
2023-05-05T18:16:04.841Z,10.50
2023-05-05T18:18:31.779Z,11.40
2023-05-05T18:20:58.685Z,10.60
2023-05-05T18:23:25.574Z,11.50
2023-05-05T18:25:52.484Z,10.90
2023-05-05T18:28:19.363Z,11.40
2023-05-05T18:30:46.267Z,10.50
2023-05-05T18:33:13.203Z,10.90
2023-05-05T18:35:40.124Z,10.40
2023-05-05T18:38:07.026Z,10.20
2023-05-05T18:40:34.152Z,10.90
2023-05-05T18:43:01.142Z,11.00
2023-05-05T18:45:28.076Z,11.60
2023-05-05T18:47:55.030Z,12.00
2023-05-05T18:50:22.021Z,11.90
2023-05-05T18:52:49.028Z,12.50
2023-05-05T18:55:15.906Z,14.60
2023-05-05T18:57:43.136Z,15.30
2023-05-05T19:00:10.378Z,16.30
2023-05-05T19:02:37.407Z,17.00
2023-05-05T19:05:04.741Z,18.00
2023-05-05T19:07:35.447Z,18.90
2023-05-05T19:10:04.079Z,20.00
2023-05-05T19:12:30.972Z,20.80
2023-05-05T19:14:57.919Z,22.30
2023-05-05T19:17:24.864Z,24.20
2023-05-05T19:19:51.769Z,25.20
2023-05-05T19:22:18.644Z,26.50
2023-05-05T19:24:45.657Z,26.80
2023-05-05T19:27:16.457Z,28.30
2023-05-05T19:29:43.918Z,29.80
2023-05-05T19:32:11.012Z,30.10
2023-05-05T19:34:37.973Z,30.90
2023-05-05T19:37:04.871Z,32.00
2023-05-05T19:39:31.823Z,32.00
2023-05-05T19:41:59.089Z,32.50
2023-05-05T19:44:25.985Z,33.30
2023-05-05T19:46:53.046Z,34.00
2023-05-05T19:49:20.016Z,34.10
2023-05-05T19:51:49.865Z,31.80
2023-05-05T19:54:16.760Z,31.70
2023-05-05T19:56:43.774Z,33.00
2023-05-05T19:59:10.824Z,33.30
2023-05-05T20:01:37.824Z,34.40
2023-05-05T20:04:06.090Z,34.90
2023-05-05T20:06:33.080Z,34.70
2023-05-05T20:09:00.605Z,36.60
2023-05-05T20:11:27.904Z,37.70
2023-05-05T20:13:54.849Z,39.70
2023-05-05T20:16:22.136Z,41.60
2023-05-05T20:18:49.154Z,43.00
2023-05-05T20:21:16.925Z,43.00
2023-05-05T20:23:44.506Z,44.50
2023-05-05T20:26:11.620Z,46.10
2023-05-05T20:28:40.066Z,47.00
2023-05-05T20:31:08.355Z,49.30
2023-05-05T20:33:35.402Z,50.30
2023-05-05T20:36:02.308Z,52.40
2023-05-05T20:38:29.182Z,52.30
2023-05-05T20:40:56.135Z,54.60
2023-05-05T20:43:23.038Z,54.80
2023-05-05T20:45:49.889Z,55.30
2023-05-05T20:48:16.857Z,57.00
2023-05-05T20:50:43.773Z,59.70
2023-05-05T20:53:11.216Z,60.50
2023-05-05T20:55:38.085Z,61.20
2023-05-05T20:58:04.963Z,61.40
2023-05-05T21:00:31.963Z,62.50
2023-05-05T21:02:59.068Z,62.80
2023-05-05T21:05:26.227Z,62.90
2023-05-05T21:07:53.374Z,63.00
2023-05-05T21:10:20.368Z,62.20
2023-05-05T21:12:47.347Z,62.30
2023-05-05T21:15:14.282Z,62.20
2023-05-05T21:17:41.217Z,63.10
2023-05-05T21:20:08.788Z,63.70
2023-05-05T21:22:35.867Z,64.90
2023-05-05T21:25:11.083Z,65.00
2023-05-05T21:27:37.973Z,65.80
2023-05-05T21:30:05.086Z,66.10
2023-05-05T21:32:32.162Z,66.10
2023-05-05T21:34:59.131Z,67.00
2023-05-05T21:37:26.146Z,68.20
2023-05-05T21:39:53.054Z,68.10
2023-05-05T21:42:19.896Z,68.20
2023-05-05T21:44:46.772Z,71.30
2023-05-05T21:47:13.680Z,71.20
2023-05-05T21:49:40.568Z,71.20
2023-05-05T21:52:07.409Z,72.30
2023-05-05T21:54:34.308Z,72.50
2023-05-05T21:57:01.534Z,75.30
2023-05-05T21:59:28.432Z,75.30
2023-05-05T22:01:55.357Z,76.40
2023-05-05T22:04:22.414Z,76.20
2023-05-05T22:06:49.270Z,75.70
2023-05-05T22:09:16.468Z,75.80
2023-05-05T22:11:43.363Z,76.90
2023-05-05T22:14:10.538Z,76.90
2023-05-05T22:16:37.472Z,78.10
2023-05-05T22:19:04.499Z,78.00
2023-05-05T22:21:31.699Z,77.40
2023-05-05T22:23:58.602Z,77.20
2023-05-05T22:26:25.446Z,76.80
2023-05-05T22:28:52.509Z,77.00
2023-05-05T22:31:19.411Z,77.30
2023-05-05T22:33:46.357Z,76.90
2023-05-05T22:36:13.255Z,76.80
2023-05-05T22:38:40.152Z,76.90
2023-05-05T22:41:07.651Z,76.80
2023-05-05T22:43:34.515Z,76.60
2023-05-05T22:46:01.430Z,76.10
2023-05-05T22:48:28.328Z,76.00
2023-05-05T22:50:55.266Z,76.90
2023-05-05T22:53:22.158Z,76.20
2023-05-05T22:55:49.061Z,76.10
2023-05-05T22:58:15.922Z,76.90
2023-05-05T23:00:42.878Z,77.40
2023-05-05T23:03:10.252Z,77.80
2023-05-05T23:05:37.226Z,78.20
2023-05-05T23:08:04.858Z,79.50
2023-05-05T23:10:31.701Z,80.00
2023-05-05T23:12:58.703Z,80.30
2023-05-05T23:15:25.689Z,80.50
2023-05-05T23:17:52.640Z,80.60
2023-05-05T23:20:19.693Z,80.60
2023-05-05T23:22:46.535Z,81.60
2023-05-05T23:25:13.603Z,83.10
2023-05-05T23:27:41.302Z,83.40
2023-05-05T23:30:08.780Z,84.10
2023-05-05T23:32:35.676Z,85.40
2023-05-05T23:35:02.584Z,84.80
2023-05-05T23:37:29.462Z,85.90
2023-05-05T23:39:56.527Z,86.00
2023-05-05T23:42:23.912Z,85.80
2023-05-05T23:44:50.845Z,86.80
2023-05-05T23:47:17.736Z,86.80
2023-05-05T23:49:44.711Z,86.40
2023-05-05T23:52:11.556Z,85.20
2023-05-05T23:54:38.409Z,84.90
2023-05-05T23:57:05.364Z,86.10
2023-05-05T23:59:32.274Z,87.00
